Aérodrome :
LOGIN :

S'inscrire | Disclaimer

   EN    FR    IT 

 










Légende :    VFR   VFR Marginal   IFR   IFR Intensif   IFR Très Intensif
Visi : 
Plafond : 
>= 8 km
>= 3000ft
5 à 8 km
1000 à 3000 ft
1500m à 5 km
500 à 1000 ft
800 à 1500m
200 à 500 ft
< 800m
< 200 ft
Symboles :   Orages  Brouillard  Fortes neiges  Fortes précipitations  Vent > 20 kt
SIGMETs :   Divers  Orages  Givrage  Turbulence  Onde Orograph.  Cendres Volcan.







- Altitude de l'aérodrome : 1300 ft
- Code IATA : LIG
- Voir les cartes d'approche


LFBL - Limoges

DERNIER METAR :
  • 270330Z AUTO 26005KT 220V300 4300 DZ BR BKN004 OVC009 11/11 Q1016 TEMPO NSW

METARs EXPIRÉS :
  • 270300Z AUTO 25004KT 230V290 6000 -DZ BKN005 BKN009 OVC014 11/11 Q1016 TEMPO 3000 -DZ
  • 270230Z AUTO 25004KT 220V280 6000 -RADZ BKN009 OVC016 12/11 Q1016 TEMPO 3000 -DZ OVC003
  • 270200Z AUTO 25004KT 220V300 9999 SCT010 OVC016 12/11 Q1016 BECMG BKN006
  • 270130Z AUTO 27005KT 9999 BKN010 OVC019 12/11 Q1016 NOSIG
  • 270100Z AUTO 24004KT 200V280 9999 SCT012 OVC021 12/10 Q1017 BECMG BKN006

TAF TAF LFBL
Valide du 27 à 00h jusqu'au 28 à 00h UTC


262300Z 2700/2724 29008KT 9999 SCT015 BKN030
BECMG 2701/2703 BKN006
TEMPO 2704/2708 3000 -DZ OVC003
TEMPO 2708/2714 4000 -RADZ BKN004
BECMG 2714/2716 SCT025 BKN045
PROB40
TEMPO 2716/2720 4000 SHRA SCT030TCU
PROB30
TEMPO 2722/2724 4000 BR BKN003
ATIS : +33 5 55 48 40 37
Pas de NOTAMs connus pour ce terrain.



MET'MAP, la Météo Aéronautique d'un coup d'oeil ! - Copyright ORBIFLY Décembre 2007 - Disclaimer

ORBIFLY MET'MAP TEAM :

Programmation & Développement : Alexandra Zaïnal
Conception & Développement : Baudouin d'Aumeries
Co-Programmation & Développement : Marc-Olivier Méhu
Soutien technique & logistique : Manuel Goepfert

Contact : metmap@orbifly.com




SOURCES & CREDITS :

   NOAA